createdAt,value
2022-11-29T00:01:31.199Z,155.80
2022-11-29T00:03:57.662Z,138.05
2022-11-29T00:06:26.350Z,109.65
2022-11-29T00:08:54.481Z,121.20
2022-11-29T00:11:24.318Z,171.02
2022-11-29T00:13:50.677Z,183.02
2022-11-29T00:16:17.090Z,104.72
2022-11-29T00:18:43.498Z,96.18
2022-11-29T00:21:09.889Z,105.35
2022-11-29T00:23:36.324Z,90.85
2022-11-29T00:26:07.406Z,81.65
2022-11-29T00:28:35.659Z,106.03
2022-11-29T00:31:16.376Z,97.80
2022-11-29T00:33:42.847Z,112.15
2022-11-29T00:36:09.562Z,117.95
2022-11-29T00:38:35.912Z,137.40
2022-11-29T00:41:02.528Z,105.03
2022-11-29T00:43:28.889Z,158.02
2022-11-29T00:45:55.321Z,102.45
2022-11-29T00:48:21.814Z,116.72
2022-11-29T00:50:48.199Z,83.82
2022-11-29T00:53:14.660Z,86.03
2022-11-29T00:55:41.018Z,80.22
2022-11-29T00:58:07.348Z,76.60
2022-11-29T01:00:33.719Z,105.22
2022-11-29T01:03:00.089Z,83.47
2022-11-29T01:05:26.434Z,172.73
2022-11-29T01:07:52.795Z,105.85
2022-11-29T01:10:19.266Z,95.68
2022-11-29T01:12:45.658Z,86.68
2022-11-29T01:15:12.444Z,146.43
2022-11-29T01:17:39.583Z,110.00
2022-11-29T01:20:10.005Z,111.95
2022-11-29T01:22:37.577Z,117.53
2022-11-29T01:25:05.896Z,118.93
2022-11-29T01:27:32.250Z,127.47
2022-11-29T01:29:58.791Z,101.90
2022-11-29T01:32:25.201Z,84.78
2022-11-29T01:34:51.571Z,96.72
2022-11-29T01:37:17.966Z,162.00
2022-11-29T01:39:44.363Z,145.15
2022-11-29T01:42:11.864Z,115.32
2022-11-29T01:44:38.169Z,90.15
2022-11-29T01:47:05.087Z,100.10
2022-11-29T01:49:41.423Z,84.03
2022-11-29T01:52:19.222Z,123.40
2022-11-29T01:54:49.363Z,111.72
2022-11-29T01:57:16.477Z,99.38
2022-11-29T01:59:47.704Z,90.72
2022-11-29T02:02:18.175Z,110.13
2022-11-29T02:04:46.759Z,153.35
2022-11-29T02:07:13.659Z,103.95
2022-11-29T02:09:40.018Z,107.78
2022-11-29T02:12:17.033Z,88.50
2022-11-29T02:15:13.528Z,86.93
2022-11-29T02:17:58.682Z,92.60
2022-11-29T02:20:46.443Z,98.88
2022-11-29T02:23:31.398Z,111.13
2022-11-29T02:26:09.728Z,99.55
2022-11-29T02:29:01.960Z,111.38
2022-11-29T02:31:35.590Z,87.20
2022-11-29T02:34:06.208Z,75.78
2022-11-29T02:36:47.326Z,100.80
2022-11-29T02:39:33.906Z,101.85
2022-11-29T02:42:12.281Z,84.40
2022-11-29T02:45:31.519Z,106.00
2022-11-29T02:48:10.929Z,79.60
2022-11-29T02:50:55.334Z,102.07
2022-11-29T02:53:33.660Z,116.32
2022-11-29T02:58:47.135Z,88.68
2022-11-29T03:01:26.672Z,142.80
2022-11-29T03:04:14.926Z,134.52
2022-11-29T03:06:59.815Z,118.68
2022-11-29T03:09:39.337Z,123.32
2022-11-29T03:12:24.682Z,81.07
2022-11-29T03:15:17.440Z,108.30
2022-11-29T03:18:09.232Z,112.35
2022-11-29T03:20:45.927Z,132.43
2022-11-29T03:23:36.261Z,111.60
2022-11-29T03:28:48.993Z,161.85
2022-11-29T03:31:29.944Z,130.18
2022-11-29T03:34:20.534Z,108.78
2022-11-29T03:37:01.010Z,153.55
2022-11-29T03:39:41.416Z,104.53
2022-11-29T03:42:13.976Z,129.68
2022-11-29T03:44:50.896Z,170.68
2022-11-29T03:47:22.947Z,108.70
2022-11-29T03:50:11.247Z,154.38
2022-11-29T03:52:52.342Z,159.82
2022-11-29T03:55:21.480Z,167.95
2022-11-29T03:58:17.465Z,101.18
2022-11-29T04:00:49.986Z,147.05
2022-11-29T04:03:31.596Z,185.45
2022-11-29T04:06:30.401Z,106.55
2022-11-29T04:09:21.381Z,151.05
2022-11-29T04:12:27.917Z,132.80
2022-11-29T04:15:15.427Z,102.03
2022-11-29T04:18:12.069Z,200.75
2022-11-29T04:21:05.581Z,155.45
2022-11-29T04:23:55.631Z,128.75
2022-11-29T04:26:45.815Z,159.50
2022-11-29T04:29:33.927Z,126.65
2022-11-29T04:32:27.110Z,97.00
2022-11-29T04:35:14.636Z,98.90
2022-11-29T04:38:26.038Z,103.47
2022-11-29T04:41:17.136Z,139.70
2022-11-29T04:44:11.980Z,98.03
2022-11-29T04:47:04.942Z,93.00
2022-11-29T04:49:49.562Z,123.10
2022-11-29T04:52:31.098Z,107.03
2022-11-29T04:55:00.393Z,152.88
2022-11-29T04:57:49.117Z,118.72
2022-11-29T05:00:18.533Z,183.25
2022-11-29T05:03:01.424Z,189.35
2022-11-29T05:05:55.222Z,184.27
2022-11-29T05:08:45.203Z,112.05
2022-11-29T05:11:43.284Z,75.88
2022-11-29T05:14:40.634Z,198.10
2022-11-29T05:17:44.586Z,145.13
2022-11-29T05:20:44.301Z,138.90
2022-11-29T05:23:32.312Z,157.48
2022-11-29T05:26:22.602Z,71.70
2022-11-29T05:29:21.146Z,83.95
2022-11-29T05:31:56.425Z,106.05
2022-11-29T05:34:37.782Z,105.10
2022-11-29T05:37:25.300Z,132.90
2022-11-29T05:40:24.132Z,146.43
2022-11-29T05:43:08.591Z,81.40
2022-11-29T05:46:03.372Z,161.23
2022-11-29T05:48:57.893Z,115.97
2022-11-29T05:51:46.092Z,101.00
2022-11-29T05:54:27.162Z,92.78
2022-11-29T05:57:07.986Z,90.68
2022-11-29T05:59:38.228Z,83.60
2022-11-29T06:02:26.679Z,111.15
2022-11-29T06:05:12.952Z,79.03
2022-11-29T06:08:07.679Z,101.07
2022-11-29T06:10:39.228Z,133.38
2022-11-29T06:13:33.408Z,106.65
2022-11-29T06:16:35.631Z,73.00
2022-11-29T06:19:39.791Z,89.18
2022-11-29T06:22:43.559Z,133.70
2022-11-29T06:25:13.678Z,66.28
2022-11-29T06:28:15.598Z,71.40
2022-11-29T06:30:57.070Z,105.40
2022-11-29T06:33:36.773Z,59.92
2022-11-29T06:36:18.649Z,58.03
2022-11-29T06:38:45.239Z,83.20
2022-11-29T06:41:30.033Z,95.03
2022-11-29T06:43:56.756Z,87.72
2022-11-29T06:46:44.389Z,112.65
2022-11-29T06:49:24.977Z,82.85
2022-11-29T06:52:20.309Z,81.47
2022-11-29T06:55:02.466Z,88.25
2022-11-29T06:57:47.612Z,63.47
2022-11-29T07:00:27.896Z,64.57
2022-11-29T07:03:29.657Z,43.88
2022-11-29T07:05:57.452Z,41.08
2022-11-29T07:08:24.645Z,41.05
2022-11-29T07:10:53.339Z,54.42
2022-11-29T07:13:21.163Z,84.10
2022-11-29T07:15:57.599Z,45.15
2022-11-29T07:18:52.360Z,54.00
2022-11-29T07:21:36.086Z,42.88
2022-11-29T07:24:25.826Z,38.25
2022-11-29T07:27:05.223Z,46.42
2022-11-29T07:30:15.811Z,42.05
2022-11-29T07:33:00.097Z,67.63
2022-11-29T07:35:37.995Z,58.45
2022-11-29T07:38:04.272Z,70.13
2022-11-29T07:43:38.054Z,44.78
2022-11-29T07:46:04.433Z,72.55
2022-11-29T07:48:30.803Z,59.13
2022-11-29T07:50:57.511Z,46.03
2022-11-29T07:53:24.389Z,61.90
2022-11-29T07:55:50.946Z,66.43
2022-11-29T07:58:18.370Z,72.50
2022-11-29T08:00:45.695Z,64.45
2022-11-29T08:03:12.248Z,86.03
2022-11-29T08:05:39.073Z,58.63
2022-11-29T08:08:06.377Z,51.53
2022-11-29T08:10:32.736Z,61.88
2022-11-29T08:12:59.098Z,49.88
2022-11-29T08:15:25.729Z,62.13
2022-11-29T08:17:52.868Z,47.67
2022-11-29T08:20:19.360Z,50.15
2022-11-29T08:22:45.733Z,59.83
2022-11-29T08:25:12.373Z,70.25
2022-11-29T08:27:39.065Z,61.80
2022-11-29T08:30:06.662Z,45.53
2022-11-29T08:32:34.053Z,41.60
2022-11-29T08:35:00.407Z,46.85
2022-11-29T08:37:26.720Z,57.92
2022-11-29T08:42:19.366Z,67.28
2022-11-29T08:44:45.903Z,60.80
2022-11-29T08:47:12.481Z,58.50
2022-11-29T08:49:38.882Z,72.40
2022-11-29T08:52:05.207Z,66.00
2022-11-29T08:54:31.555Z,66.97
2022-11-29T08:57:37.981Z,74.38
2022-11-29T08:59:44.237Z,50.13
2022-11-29T09:02:10.614Z,55.95
2022-11-29T09:04:37.006Z,38.58
2022-11-29T09:07:03.338Z,47.47
2022-11-29T09:09:29.669Z,48.88
2022-11-29T09:11:56.021Z,51.88
2022-11-29T09:14:22.380Z,60.78
2022-11-29T09:16:48.772Z,47.17
2022-11-29T09:19:15.200Z,53.00
2022-11-29T09:21:41.589Z,54.17
2022-11-29T09:24:07.990Z,49.17
2022-11-29T09:26:36.676Z,38.83
2022-11-29T09:29:05.301Z,47.75
2022-11-29T09:31:32.947Z,53.58
2022-11-29T09:33:59.372Z,52.03
2022-11-29T09:36:28.863Z,52.53
2022-11-29T09:38:56.687Z,62.67
2022-11-29T09:41:43.002Z,46.03
2022-11-29T09:44:30.692Z,43.35
2022-11-29T09:47:31.859Z,41.75
2022-11-29T09:50:09.119Z,43.83
2022-11-29T09:52:47.641Z,40.55
2022-11-29T09:55:45.435Z,39.90
2022-11-29T09:58:17.958Z,40.00
2022-11-29T10:00:49.975Z,41.13
2022-11-29T10:03:29.084Z,38.92
2022-11-29T10:06:02.414Z,43.10
2022-11-29T10:08:34.700Z,39.88
2022-11-29T10:13:43.144Z,44.28
2022-11-29T10:16:20.527Z,41.15
2022-11-29T10:18:52.295Z,33.83
2022-11-29T10:21:23.204Z,40.13
2022-11-29T10:24:01.340Z,42.60
2022-11-29T10:26:33.599Z,37.15
2022-11-29T10:29:01.521Z,33.63
2022-11-29T10:31:34.815Z,33.35
2022-11-29T10:34:12.627Z,36.50
2022-11-29T10:36:45.012Z,43.97
2022-11-29T10:39:41.727Z,25.55
2022-11-29T10:42:20.034Z,30.52
2022-11-29T10:44:46.672Z,33.05
2022-11-29T10:47:13.190Z,33.78
2022-11-29T10:49:39.574Z,41.10
2022-11-29T10:52:16.207Z,36.17
2022-11-29T10:54:44.313Z,34.08
2022-11-29T10:57:16.774Z,38.25
2022-11-29T11:02:24.276Z,33.40
2022-11-29T11:04:50.726Z,28.30
2022-11-29T11:07:27.319Z,29.52
2022-11-29T11:09:56.529Z,28.77
2022-11-29T11:12:28.114Z,32.83
2022-11-29T11:15:26.533Z,34.90
2022-11-29T11:18:04.763Z,27.80
2022-11-29T11:23:20.761Z,27.38
2022-11-29T11:28:25.327Z,28.52
2022-11-29T11:33:21.919Z,29.55
2022-11-29T11:36:23.489Z,31.42
2022-11-29T11:38:55.632Z,36.45
2022-11-29T11:44:45.799Z,28.60
2022-11-29T11:47:15.688Z,31.08
2022-11-29T11:49:53.039Z,29.38
2022-11-29T11:52:27.524Z,28.83
2022-11-29T11:54:57.742Z,25.77
2022-11-29T11:57:26.063Z,28.35
2022-11-29T11:59:55.460Z,23.80
2022-11-29T12:02:26.106Z,26.13
2022-11-29T12:04:57.291Z,22.23
2022-11-29T12:07:59.811Z,28.13
2022-11-29T12:10:24.367Z,26.40
2022-11-29T12:12:52.066Z,22.42
2022-11-29T12:15:29.418Z,26.30
2022-11-29T12:18:04.606Z,25.15
2022-11-29T12:20:50.073Z,22.00
2022-11-29T12:23:26.996Z,22.85
2022-11-29T12:26:55.252Z,26.02
2022-11-29T12:29:13.887Z,25.88
2022-11-29T12:31:40.182Z,24.73
2022-11-29T12:34:33.136Z,25.38
2022-11-29T12:37:14.260Z,25.25
2022-11-29T12:39:56.111Z,24.42
2022-11-29T12:42:35.471Z,26.92
2022-11-29T12:45:10.872Z,19.33
2022-11-29T12:48:00.957Z,19.73
2022-11-29T12:50:44.750Z,24.30
2022-11-29T12:53:39.017Z,23.35
2022-11-29T12:56:11.478Z,22.08
2022-11-29T12:59:10.742Z,21.58
2022-11-29T13:02:02.256Z,20.70
2022-11-29T13:04:43.789Z,20.77
2022-11-29T13:07:34.279Z,22.60
2022-11-29T13:12:47.739Z,22.98
2022-11-29T13:17:57.297Z,23.35
2022-11-29T13:20:38.521Z,20.35
2022-11-29T13:23:45.741Z,24.20
2022-11-29T13:26:15.848Z,22.77
2022-11-29T13:28:44.193Z,24.25
2022-11-29T13:31:19.926Z,22.33
2022-11-29T13:33:57.641Z,20.70
2022-11-29T13:36:56.150Z,20.80
2022-11-29T13:39:49.389Z,23.70
2022-11-29T13:42:35.540Z,19.38
2022-11-29T13:45:18.792Z,21.08
2022-11-29T13:48:02.178Z,23.05
2022-11-29T13:50:36.136Z,17.55
2022-11-29T13:53:06.278Z,19.77
2022-11-29T13:55:32.655Z,16.40
2022-11-29T13:58:18.300Z,16.88
2022-11-29T14:00:44.976Z,20.75
2022-11-29T14:03:30.148Z,17.08
2022-11-29T14:06:02.399Z,14.75
2022-11-29T14:09:01.936Z,18.55
2022-11-29T14:11:31.493Z,16.48
2022-11-29T14:14:36.231Z,14.98
2022-11-29T14:17:05.135Z,15.10
2022-11-29T14:19:36.877Z,14.30
2022-11-29T14:22:03.158Z,14.48
2022-11-29T14:24:32.248Z,15.90
2022-11-29T14:27:07.853Z,14.10
2022-11-29T14:29:49.443Z,14.52
2022-11-29T14:32:41.506Z,15.45
2022-11-29T14:35:10.777Z,15.52
2022-11-29T14:38:05.472Z,17.08
2022-11-29T14:40:41.013Z,16.95
2022-11-29T14:43:26.296Z,16.25
2022-11-29T14:46:11.516Z,16.00
2022-11-29T14:48:38.253Z,17.38
2022-11-29T14:51:13.505Z,17.63
2022-11-29T14:53:41.670Z,20.00
2022-11-29T14:56:36.290Z,19.85
2022-11-29T14:59:40.129Z,19.35
2022-11-29T15:02:21.519Z,21.05
2022-11-29T15:04:51.725Z,19.25
2022-11-29T15:07:28.382Z,21.75
2022-11-29T15:09:59.265Z,19.33
2022-11-29T15:12:28.854Z,16.15
2022-11-29T15:15:05.915Z,15.98
2022-11-29T15:17:50.663Z,17.55
2022-11-29T15:20:40.629Z,19.95
2022-11-29T15:23:14.187Z,21.50
2022-11-29T15:25:51.492Z,23.50
2022-11-29T15:28:22.460Z,23.10
2022-11-29T15:31:00.234Z,19.67
2022-11-29T15:33:28.079Z,25.98
2022-11-29T15:35:56.940Z,23.98
2022-11-29T15:38:24.328Z,22.33
2022-11-29T15:40:52.660Z,22.45
2022-11-29T15:43:23.703Z,24.35
2022-11-29T15:45:52.512Z,21.48
2022-11-29T15:48:23.400Z,22.10
2022-11-29T15:51:09.451Z,21.30
2022-11-29T15:53:50.342Z,24.65
2022-11-29T15:56:49.160Z,24.73
2022-11-29T15:59:23.291Z,19.98
2022-11-29T16:01:53.821Z,25.48
2022-11-29T16:04:22.292Z,25.90
2022-11-29T16:06:49.729Z,24.65
2022-11-29T16:09:25.962Z,27.35
2022-11-29T16:11:52.558Z,24.25
2022-11-29T16:14:25.011Z,25.17
2022-11-29T16:16:54.404Z,24.13
2022-11-29T16:19:35.804Z,25.67
2022-11-29T16:22:07.673Z,22.67
2022-11-29T16:24:36.058Z,26.15
2022-11-29T16:27:02.789Z,27.25
2022-11-29T16:29:38.454Z,26.42
2022-11-29T16:32:25.813Z,31.83
2022-11-29T16:34:53.207Z,27.77
2022-11-29T16:37:25.263Z,27.13
2022-11-29T16:39:56.622Z,23.50
2022-11-29T16:42:26.171Z,28.08
2022-11-29T16:45:01.891Z,23.58
2022-11-29T16:47:49.728Z,22.80
2022-11-29T16:50:18.195Z,24.17
2022-11-29T16:52:45.128Z,34.50
2022-11-29T16:55:11.695Z,20.15
2022-11-29T16:57:38.409Z,23.10
2022-11-29T17:00:12.396Z,22.98
2022-11-29T17:02:38.846Z,26.42
2022-11-29T17:05:05.516Z,25.80
2022-11-29T17:07:35.989Z,22.50
2022-11-29T17:10:05.366Z,23.20
2022-11-29T17:12:31.738Z,25.10
2022-11-29T17:14:58.049Z,25.67
2022-11-29T17:17:24.377Z,26.90
2022-11-29T17:19:50.685Z,24.95
2022-11-29T17:22:17.019Z,24.40
2022-11-29T17:24:47.627Z,26.23
2022-11-29T17:27:14.803Z,24.35
2022-11-29T17:29:41.131Z,28.05
2022-11-29T17:32:07.501Z,24.42
2022-11-29T17:34:33.861Z,26.98
2022-11-29T17:37:00.169Z,28.30
2022-11-29T17:39:26.493Z,25.77
2022-11-29T17:41:52.906Z,31.73
2022-11-29T17:44:19.257Z,28.50
2022-11-29T17:46:45.610Z,31.85
2022-11-29T17:49:11.961Z,28.10
2022-11-29T17:51:55.154Z,28.55
2022-11-29T17:54:22.286Z,32.63
2022-11-29T17:56:48.824Z,30.80
2022-11-29T17:59:15.173Z,31.90
2022-11-29T18:01:41.596Z,34.42
2022-11-29T18:04:07.969Z,31.27
2022-11-29T18:06:37.205Z,34.22
2022-11-29T18:09:04.833Z,36.03
2022-11-29T18:11:42.956Z,31.55
2022-11-29T18:14:15.492Z,38.63
2022-11-29T18:16:42.179Z,36.15
2022-11-29T18:19:12.126Z,34.92
2022-11-29T18:21:38.949Z,38.75
2022-11-29T18:24:06.792Z,37.75
2022-11-29T18:26:34.876Z,35.35
2022-11-29T18:29:01.255Z,34.70
2022-11-29T18:31:35.259Z,38.42
2022-11-29T18:34:03.790Z,39.33
2022-11-29T18:36:35.255Z,43.10
2022-11-29T18:39:07.877Z,40.40
2022-11-29T18:41:35.114Z,43.10
2022-11-29T18:44:04.928Z,41.90
2022-11-29T18:46:31.961Z,42.70
2022-11-29T18:49:00.115Z,43.08
2022-11-29T18:51:27.366Z,42.33
2022-11-29T18:53:53.711Z,42.47
2022-11-29T18:56:22.339Z,52.20
2022-11-29T18:58:58.576Z,41.20
2022-11-29T19:01:27.492Z,43.60
2022-11-29T19:03:55.327Z,44.28
2022-11-29T19:06:24.140Z,43.83
2022-11-29T19:08:51.893Z,37.25
2022-11-29T19:11:20.726Z,45.58
2022-11-29T19:13:53.666Z,38.15
2022-11-29T19:16:20.034Z,28.65
2022-11-29T19:18:51.256Z,13.10
2022-11-29T19:21:19.543Z,19.65
2022-11-29T19:23:54.653Z,12.98
2022-11-29T19:26:22.005Z,13.75
2022-11-29T19:28:49.255Z,16.48
2022-11-29T19:31:18.746Z,15.15
2022-11-29T19:33:46.425Z,17.52
2022-11-29T19:36:18.290Z,14.13
2022-11-29T19:38:50.164Z,19.63
2022-11-29T19:41:28.100Z,19.05
2022-11-29T19:43:57.565Z,17.70
2022-11-29T19:46:26.821Z,15.13
2022-11-29T19:48:54.945Z,17.08
2022-11-29T19:51:22.325Z,20.02
2022-11-29T19:53:52.631Z,19.48
2022-11-29T19:56:19.230Z,21.63
2022-11-29T19:58:46.178Z,20.83
2022-11-29T20:01:15.294Z,20.25
2022-11-29T20:03:42.362Z,21.48
2022-11-29T20:06:09.513Z,22.77
2022-11-29T20:08:36.762Z,22.67
2022-11-29T20:11:22.064Z,21.85
2022-11-29T20:13:57.224Z,22.58
2022-11-29T20:16:24.779Z,21.10
2022-11-29T20:18:51.871Z,21.40
2022-11-29T20:21:30.711Z,23.27
2022-11-29T20:24:07.039Z,21.20
2022-11-29T20:26:36.375Z,22.38
2022-11-29T20:29:04.343Z,22.00
2022-11-29T20:31:33.288Z,21.98
2022-11-29T20:33:59.899Z,20.60
2022-11-29T20:36:50.777Z,22.60
2022-11-29T20:39:41.597Z,24.17
2022-11-29T20:42:26.589Z,24.52
2022-11-29T20:44:55.465Z,22.05
2022-11-29T20:47:48.715Z,22.17
2022-11-29T20:50:23.961Z,23.58
2022-11-29T20:52:58.367Z,19.80
2022-11-29T20:55:25.047Z,25.77
2022-11-29T20:57:51.381Z,19.92
2022-11-29T21:00:17.985Z,27.25
2022-11-29T21:02:44.350Z,23.17
2022-11-29T21:05:10.763Z,25.38
2022-11-29T21:07:37.268Z,27.27
2022-11-29T21:10:04.575Z,26.02
2022-11-29T21:12:31.317Z,27.27
2022-11-29T21:14:58.159Z,27.45
2022-11-29T21:17:30.214Z,28.33
2022-11-29T21:20:00.081Z,27.02
2022-11-29T21:22:50.370Z,25.02
2022-11-29T21:27:54.460Z,24.73
2022-11-29T21:30:23.441Z,23.95
2022-11-29T21:32:50.403Z,26.27
2022-11-29T21:35:17.264Z,26.58
2022-11-29T21:37:44.080Z,26.10
2022-11-29T21:40:12.981Z,28.45
2022-11-29T21:42:39.324Z,30.65
2022-11-29T21:45:13.292Z,26.05
2022-11-29T21:47:41.719Z,26.63
2022-11-29T21:50:08.641Z,26.63
2022-11-29T21:52:35.063Z,27.30
2022-11-29T21:55:01.904Z,28.70
2022-11-29T21:57:28.263Z,28.42
2022-11-29T21:59:54.661Z,28.17
2022-11-29T22:02:21.112Z,19.27
2022-11-29T22:04:47.770Z,25.52
2022-11-29T22:07:14.305Z,26.15
2022-11-29T22:09:40.761Z,21.23
2022-11-29T22:12:26.216Z,21.15
2022-11-29T22:14:53.530Z,24.02
2022-11-29T22:17:19.897Z,24.02
2022-11-29T22:19:46.243Z,21.30
2022-11-29T22:22:12.640Z,25.98
2022-11-29T22:24:39.125Z,32.15
2022-11-29T22:27:05.465Z,27.27
2022-11-29T22:29:31.821Z,28.27
2022-11-29T22:31:58.120Z,30.55
2022-11-29T22:34:26.796Z,27.45
2022-11-29T22:36:53.139Z,29.75
2022-11-29T22:39:19.493Z,26.92
2022-11-29T22:41:50.688Z,29.98
2022-11-29T22:44:20.222Z,28.45
2022-11-29T22:46:46.539Z,26.33
2022-11-29T22:49:12.939Z,30.52
2022-11-29T22:51:39.283Z,29.17
2022-11-29T22:54:08.680Z,30.13
2022-11-29T22:56:38.011Z,31.42
2022-11-29T22:59:05.170Z,30.27
2022-11-29T23:01:33.276Z,31.13
2022-11-29T23:04:02.310Z,27.60
2022-11-29T23:06:30.929Z,30.92
2022-11-29T23:08:59.528Z,32.65
2022-11-29T23:11:30.243Z,34.17
2022-11-29T23:13:57.029Z,33.85
2022-11-29T23:16:26.415Z,31.55
2022-11-29T23:18:54.391Z,30.30
2022-11-29T23:21:26.202Z,30.80
2022-11-29T23:23:56.542Z,33.33
2022-11-29T23:26:32.502Z,29.02
2022-11-29T23:28:58.862Z,30.95
2022-11-29T23:31:25.433Z,34.10
2022-11-29T23:33:51.847Z,28.55
2022-11-29T23:36:18.337Z,28.02
2022-11-29T23:38:44.813Z,29.85
2022-11-29T23:41:11.381Z,27.10
2022-11-29T23:43:39.528Z,26.48
2022-11-29T23:46:24.314Z,29.92
2022-11-29T23:48:50.879Z,29.50
2022-11-29T23:51:18.508Z,30.63
2022-11-29T23:53:45.772Z,34.63
2022-11-29T23:56:17.211Z,34.15
2022-11-29T23:58:44.533Z,29.10
